Terminal Aerodrome Forecast
Issued by NWS

Home | Current Version | Previous Version | Text Only | Print | Product List | Glossary Off
Versions: 1 2 3 4 5 6 7 8 9 10 11 12 13 14

000
FTUS41 KCLE 211602 AAB
TAFFDY
TAF AMD
KFDY 211602Z 2116/2212 30005KT 6SM HZ SCT008
      TEMPO 2116/2117 5SM HZ BKN008
     FM211700 30010KT P6SM SCT012
     FM220300 32014G22KT P6SM SCT035=

USA.gov is the U.S. government's official web portal to all federal, state and local government web resources and services.